sensor_id;sensor_type;location;lat;lon;timestamp;P1;durP1;ratioP1;P2;durP2;ratioP2
50379;SDS011;37474;59.468;18.040;2024-01-30T00:01:25;28.07;;;10.83;;
50379;SDS011;37474;59.468;18.040;2024-01-30T00:03:55;33.90;;;10.77;;
50379;SDS011;37474;59.468;18.040;2024-01-30T00:06:23;42.10;;;10.90;;
50379;SDS011;37474;59.468;18.040;2024-01-30T00:08:51;35.47;;;11.77;;
50379;SDS011;37474;59.468;18.040;2024-01-30T00:11:19;28.27;;;11.40;;
50379;SDS011;37474;59.468;18.040;2024-01-30T00:13:47;25.17;;;11.27;;
50379;SDS011;37474;59.468;18.040;2024-01-30T00:16:22;39.50;;;12.17;;
50379;SDS011;37474;59.468;18.040;2024-01-30T00:18:51;30.53;;;11.27;;
50379;SDS011;37474;59.468;18.040;2024-01-30T00:21:21;32.87;;;12.07;;
50379;SDS011;37474;59.468;18.040;2024-01-30T00:23:50;23.33;;;10.95;;
50379;SDS011;37474;59.468;18.040;2024-01-30T00:26:18;27.60;;;10.57;;
50379;SDS011;37474;59.468;18.040;2024-01-30T00:28:47;27.80;;;11.20;;
50379;SDS011;37474;59.468;18.040;2024-01-30T00:31:15;28.50;;;11.10;;
50379;SDS011;37474;59.468;18.040;2024-01-30T00:33:43;30.07;;;10.87;;
50379;SDS011;37474;59.468;18.040;2024-01-30T00:36:11;28.80;;;10.57;;
50379;SDS011;37474;59.468;18.040;2024-01-30T00:38:43;28.13;;;11.07;;
50379;SDS011;37474;59.468;18.040;2024-01-30T00:41:11;27.57;;;11.60;;
50379;SDS011;37474;59.468;18.040;2024-01-30T00:43:48;37.47;;;11.30;;
50379;SDS011;37474;59.468;18.040;2024-01-30T00:46:16;27.40;;;11.07;;
50379;SDS011;37474;59.468;18.040;2024-01-30T00:48:44;28.60;;;10.03;;
50379;SDS011;37474;59.468;18.040;2024-01-30T00:51:12;38.33;;;11.90;;
50379;SDS011;37474;59.468;18.040;2024-01-30T00:53:40;32.50;;;10.97;;
50379;SDS011;37474;59.468;18.040;2024-01-30T00:56:10;30.47;;;10.23;;
50379;SDS011;37474;59.468;18.040;2024-01-30T00:58:38;26.70;;;11.13;;
50379;SDS011;37474;59.468;18.040;2024-01-30T01:01:06;33.10;;;11.03;;
50379;SDS011;37474;59.468;18.040;2024-01-30T01:03:35;32.53;;;10.73;;
50379;SDS011;37474;59.468;18.040;2024-01-30T01:06:03;28.40;;;10.20;;
50379;SDS011;37474;59.468;18.040;2024-01-30T01:08:31;24.93;;;10.10;;
50379;SDS011;37474;59.468;18.040;2024-01-30T01:10:59;31.60;;;11.37;;
50379;SDS011;37474;59.468;18.040;2024-01-30T01:13:29;33.53;;;11.67;;
50379;SDS011;37474;59.468;18.040;2024-01-30T01:15:57;28.93;;;10.80;;
50379;SDS011;37474;59.468;18.040;2024-01-30T01:18:25;34.53;;;11.73;;
50379;SDS011;37474;59.468;18.040;2024-01-30T01:20:53;29.57;;;10.53;;
50379;SDS011;37474;59.468;18.040;2024-01-30T01:23:21;33.73;;;11.63;;
50379;SDS011;37474;59.468;18.040;2024-01-30T01:25:49;31.33;;;12.43;;
50379;SDS011;37474;59.468;18.040;2024-01-30T01:28:17;32.93;;;11.70;;
50379;SDS011;37474;59.468;18.040;2024-01-30T01:30:47;30.87;;;11.07;;
50379;SDS011;37474;59.468;18.040;2024-01-30T01:33:15;29.48;;;11.02;;
50379;SDS011;37474;59.468;18.040;2024-01-30T01:35:44;42.83;;;11.30;;
50379;SDS011;37474;59.468;18.040;2024-01-30T01:38:12;29.63;;;11.00;;
50379;SDS011;37474;59.468;18.040;2024-01-30T01:40:40;28.40;;;10.67;;
50379;SDS011;37474;59.468;18.040;2024-01-30T01:43:09;40.40;;;11.83;;
50379;SDS011;37474;59.468;18.040;2024-01-30T01:45:37;38.27;;;12.07;;
50379;SDS011;37474;59.468;18.040;2024-01-30T01:48:06;33.40;;;10.00;;
50379;SDS011;37474;59.468;18.040;2024-01-30T01:50:38;34.93;;;11.13;;
50379;SDS011;37474;59.468;18.040;2024-01-30T01:53:07;39.50;;;11.70;;
50379;SDS011;37474;59.468;18.040;2024-01-30T01:55:36;30.23;;;10.80;;
50379;SDS011;37474;59.468;18.040;2024-01-30T01:58:05;34.73;;;11.93;;
50379;SDS011;37474;59.468;18.040;2024-01-30T02:00:35;27.23;;;9.52;;
50379;SDS011;37474;59.468;18.040;2024-01-30T02:03:07;33.73;;;11.13;;
50379;SDS011;37474;59.468;18.040;2024-01-30T02:05:37;42.93;;;10.87;;
50379;SDS011;37474;59.468;18.040;2024-01-30T02:08:07;37.08;;;11.73;;
50379;SDS011;37474;59.468;18.040;2024-01-30T02:10:36;38.50;;;12.00;;
50379;SDS011;37474;59.468;18.040;2024-01-30T02:13:04;38.87;;;12.07;;
50379;SDS011;37474;59.468;18.040;2024-01-30T02:15:32;45.80;;;12.90;;
50379;SDS011;37474;59.468;18.040;2024-01-30T02:18:00;60.10;;;13.13;;
50379;SDS011;37474;59.468;18.040;2024-01-30T02:20:30;54.23;;;12.17;;
50379;SDS011;37474;59.468;18.040;2024-01-30T02:23:02;46.13;;;12.17;;
50379;SDS011;37474;59.468;18.040;2024-01-30T02:25:32;46.47;;;12.80;;
50379;SDS011;37474;59.468;18.040;2024-01-30T02:28:01;45.60;;;12.80;;
50379;SDS011;37474;59.468;18.040;2024-01-30T02:30:29;61.97;;;13.83;;
50379;SDS011;37474;59.468;18.040;2024-01-30T02:32:57;30.57;;;11.73;;
50379;SDS011;37474;59.468;18.040;2024-01-30T02:35:25;81.93;;;13.77;;
50379;SDS011;37474;59.468;18.040;2024-01-30T02:37:54;38.03;;;13.07;;
50379;SDS011;37474;59.468;18.040;2024-01-30T02:40:23;59.57;;;14.00;;
50379;SDS011;37474;59.468;18.040;2024-01-30T02:42:53;80.85;;;14.10;;
50379;SDS011;37474;59.468;18.040;2024-01-30T02:45:21;52.72;;;13.43;;
50379;SDS011;37474;59.468;18.040;2024-01-30T02:47:49;54.90;;;13.20;;
50379;SDS011;37474;59.468;18.040;2024-01-30T02:50:17;68.13;;;13.63;;
50379;SDS011;37474;59.468;18.040;2024-01-30T02:52:45;46.30;;;12.97;;
50379;SDS011;37474;59.468;18.040;2024-01-30T02:55:13;42.77;;;12.70;;
50379;SDS011;37474;59.468;18.040;2024-01-30T02:57:46;62.70;;;14.50;;
50379;SDS011;37474;59.468;18.040;2024-01-30T03:00:15;62.67;;;15.20;;
50379;SDS011;37474;59.468;18.040;2024-01-30T03:02:43;60.97;;;14.00;;
50379;SDS011;37474;59.468;18.040;2024-01-30T03:05:11;47.47;;;14.33;;
50379;SDS011;37474;59.468;18.040;2024-01-30T03:07:39;44.90;;;14.20;;
50379;SDS011;37474;59.468;18.040;2024-01-30T03:10:07;49.87;;;13.63;;
50379;SDS011;37474;59.468;18.040;2024-01-30T03:12:35;45.77;;;12.97;;
50379;SDS011;37474;59.468;18.040;2024-01-30T03:15:05;68.00;;;12.83;;
50379;SDS011;37474;59.468;18.040;2024-01-30T03:17:33;36.22;;;12.55;;
50379;SDS011;37474;59.468;18.040;2024-01-30T03:20:03;34.50;;;12.57;;
50379;SDS011;37474;59.468;18.040;2024-01-30T03:22:33;34.30;;;11.50;;
50379;SDS011;37474;59.468;18.040;2024-01-30T03:25:00;27.73;;;11.03;;
50379;SDS011;37474;59.468;18.040;2024-01-30T03:27:29;44.20;;;11.83;;
50379;SDS011;37474;59.468;18.040;2024-01-30T03:29:57;24.23;;;10.80;;
50379;SDS011;37474;59.468;18.040;2024-01-30T03:32:26;25.80;;;11.43;;
50379;SDS011;37474;59.468;18.040;2024-01-30T03:34:54;47.45;;;11.82;;
50379;SDS011;37474;59.468;18.040;2024-01-30T03:37:22;24.73;;;11.10;;
50379;SDS011;37474;59.468;18.040;2024-01-30T03:39:50;35.90;;;12.77;;
50379;SDS011;37474;59.468;18.040;2024-01-30T03:42:19;45.33;;;11.60;;
50379;SDS011;37474;59.468;18.040;2024-01-30T03:44:49;58.87;;;12.90;;
50379;SDS011;37474;59.468;18.040;2024-01-30T03:47:20;40.53;;;11.02;;
50379;SDS011;37474;59.468;18.040;2024-01-30T03:49:49;39.87;;;12.67;;
50379;SDS011;37474;59.468;18.040;2024-01-30T03:52:17;29.00;;;11.17;;
50379;SDS011;37474;59.468;18.040;2024-01-30T03:54:46;31.83;;;12.50;;
50379;SDS011;37474;59.468;18.040;2024-01-30T03:57:14;33.67;;;11.80;;
50379;SDS011;37474;59.468;18.040;2024-01-30T03:59:42;33.00;;;11.50;;
50379;SDS011;37474;59.468;18.040;2024-01-30T04:02:10;29.63;;;11.57;;
50379;SDS011;37474;59.468;18.040;2024-01-30T04:04:38;26.60;;;11.97;;
50379;SDS011;37474;59.468;18.040;2024-01-30T04:07:08;33.27;;;11.93;;
50379;SDS011;37474;59.468;18.040;2024-01-30T04:09:36;24.60;;;9.00;;
50379;SDS011;37474;59.468;18.040;2024-01-30T04:12:06;27.80;;;10.52;;
50379;SDS011;37474;59.468;18.040;2024-01-30T04:14:34;22.03;;;10.60;;
50379;SDS011;37474;59.468;18.040;2024-01-30T04:17:03;28.43;;;11.53;;
50379;SDS011;37474;59.468;18.040;2024-01-30T04:19:31;42.50;;;11.43;;
50379;SDS011;37474;59.468;18.040;2024-01-30T04:22:02;24.37;;;10.63;;
50379;SDS011;37474;59.468;18.040;2024-01-30T04:24:31;22.00;;;10.67;;
50379;SDS011;37474;59.468;18.040;2024-01-30T04:26:59;31.98;;;11.23;;
50379;SDS011;37474;59.468;18.040;2024-01-30T04:29:27;26.43;;;10.97;;
50379;SDS011;37474;59.468;18.040;2024-01-30T04:31:55;28.40;;;10.90;;
50379;SDS011;37474;59.468;18.040;2024-01-30T04:34:25;26.88;;;10.93;;
50379;SDS011;37474;59.468;18.040;2024-01-30T04:36:53;21.50;;;9.57;;
50379;SDS011;37474;59.468;18.040;2024-01-30T04:39:21;32.90;;;10.80;;
50379;SDS011;37474;59.468;18.040;2024-01-30T04:41:51;26.47;;;10.60;;
50379;SDS011;37474;59.468;18.040;2024-01-30T04:44:19;23.88;;;10.00;;
50379;SDS011;37474;59.468;18.040;2024-01-30T04:46:47;26.20;;;11.00;;
50379;SDS011;37474;59.468;18.040;2024-01-30T04:49:15;32.57;;;10.67;;
50379;SDS011;37474;59.468;18.040;2024-01-30T04:51:43;30.13;;;11.33;;
50379;SDS011;37474;59.468;18.040;2024-01-30T04:54:11;28.07;;;11.47;;
50379;SDS011;37474;59.468;18.040;2024-01-30T04:56:39;26.60;;;10.70;;
50379;SDS011;37474;59.468;18.040;2024-01-30T04:59:09;30.33;;;11.50;;
50379;SDS011;37474;59.468;18.040;2024-01-30T05:01:36;28.17;;;11.55;;
50379;SDS011;37474;59.468;18.040;2024-01-30T05:04:07;28.73;;;11.33;;
50379;SDS011;37474;59.468;18.040;2024-01-30T05:06:37;26.73;;;11.10;;
50379;SDS011;37474;59.468;18.040;2024-01-30T05:09:05;29.30;;;11.70;;
50379;SDS011;37474;59.468;18.040;2024-01-30T05:11:36;58.47;;;11.10;;
50379;SDS011;37474;59.468;18.040;2024-01-30T05:14:09;25.90;;;10.67;;
50379;SDS011;37474;59.468;18.040;2024-01-30T05:19:08;25.50;;;11.02;;
50379;SDS011;37474;59.468;18.040;2024-01-30T05:21:36;27.57;;;10.63;;
50379;SDS011;37474;59.468;18.040;2024-01-30T05:24:05;27.27;;;11.47;;
50379;SDS011;37474;59.468;18.040;2024-01-30T05:26:33;30.83;;;11.27;;
50379;SDS011;37474;59.468;18.040;2024-01-30T05:29:01;48.43;;;11.87;;
50379;SDS011;37474;59.468;18.040;2024-01-30T05:31:33;26.00;;;11.43;;
50379;SDS011;37474;59.468;18.040;2024-01-30T05:34:02;25.05;;;11.68;;
50379;SDS011;37474;59.468;18.040;2024-01-30T05:36:30;29.77;;;10.50;;
50379;SDS011;37474;59.468;18.040;2024-01-30T05:38:58;20.97;;;10.17;;
50379;SDS011;37474;59.468;18.040;2024-01-30T05:41:26;27.90;;;11.33;;
50379;SDS011;37474;59.468;18.040;2024-01-30T05:43:54;25.93;;;10.80;;
50379;SDS011;37474;59.468;18.040;2024-01-30T05:46:22;28.03;;;11.67;;
50379;SDS011;37474;59.468;18.040;2024-01-30T05:48:52;23.80;;;11.10;;
50379;SDS011;37474;59.468;18.040;2024-01-30T05:51:21;33.13;;;10.93;;
50379;SDS011;37474;59.468;18.040;2024-01-30T05:53:48;23.33;;;10.67;;
50379;SDS011;37474;59.468;18.040;2024-01-30T05:56:17;26.47;;;11.47;;
50379;SDS011;37474;59.468;18.040;2024-01-30T05:58:45;28.47;;;10.90;;
50379;SDS011;37474;59.468;18.040;2024-01-30T06:01:12;25.27;;;11.63;;
50379;SDS011;37474;59.468;18.040;2024-01-30T06:03:41;28.47;;;11.23;;
50379;SDS011;37474;59.468;18.040;2024-01-30T06:06:11;33.20;;;11.30;;
50379;SDS011;37474;59.468;18.040;2024-01-30T06:08:39;31.85;;;11.13;;
50379;SDS011;37474;59.468;18.040;2024-01-30T06:11:09;35.20;;;11.13;;
50379;SDS011;37474;59.468;18.040;2024-01-30T06:13:38;23.50;;;10.73;;
50379;SDS011;37474;59.468;18.040;2024-01-30T06:16:09;29.30;;;11.30;;
50379;SDS011;37474;59.468;18.040;2024-01-30T06:18:37;27.53;;;11.70;;
50379;SDS011;37474;59.468;18.040;2024-01-30T06:21:06;39.50;;;11.13;;
50379;SDS011;37474;59.468;18.040;2024-01-30T06:23:39;23.27;;;10.57;;
50379;SDS011;37474;59.468;18.040;2024-01-30T06:26:08;25.23;;;11.40;;
50379;SDS011;37474;59.468;18.040;2024-01-30T06:28:36;39.03;;;13.17;;
50379;SDS011;37474;59.468;18.040;2024-01-30T06:31:04;25.80;;;11.17;;
50379;SDS011;37474;59.468;18.040;2024-01-30T06:33:32;36.73;;;12.10;;
50379;SDS011;37474;59.468;18.040;2024-01-30T06:36:00;28.43;;;11.40;;
50379;SDS011;37474;59.468;18.040;2024-01-30T06:38:30;30.77;;;11.98;;
50379;SDS011;37474;59.468;18.040;2024-01-30T06:41:00;31.87;;;12.37;;
50379;SDS011;37474;59.468;18.040;2024-01-30T06:43:27;32.30;;;11.95;;
50379;SDS011;37474;59.468;18.040;2024-01-30T06:45:56;32.97;;;12.43;;
50379;SDS011;37474;59.468;18.040;2024-01-30T06:48:24;29.90;;;11.57;;
50379;SDS011;37474;59.468;18.040;2024-01-30T06:50:53;38.93;;;12.80;;
50379;SDS011;37474;59.468;18.040;2024-01-30T06:53:21;30.97;;;11.83;;
50379;SDS011;37474;59.468;18.040;2024-01-30T06:55:49;39.07;;;13.10;;
50379;SDS011;37474;59.468;18.040;2024-01-30T06:58:18;36.57;;;12.80;;
50379;SDS011;37474;59.468;18.040;2024-01-30T07:00:46;39.20;;;12.98;;
50379;SDS011;37474;59.468;18.040;2024-01-30T07:03:15;35.63;;;12.87;;
50379;SDS011;37474;59.468;18.040;2024-01-30T07:05:43;33.90;;;13.43;;
50379;SDS011;37474;59.468;18.040;2024-01-30T07:08:14;34.63;;;13.20;;
50379;SDS011;37474;59.468;18.040;2024-01-30T07:10:44;36.90;;;12.70;;
50379;SDS011;37474;59.468;18.040;2024-01-30T07:13:12;35.57;;;12.97;;
50379;SDS011;37474;59.468;18.040;2024-01-30T07:15:44;32.90;;;12.67;;
50379;SDS011;37474;59.468;18.040;2024-01-30T07:18:13;32.47;;;12.98;;
50379;SDS011;37474;59.468;18.040;2024-01-30T07:20:41;34.57;;;13.73;;
50379;SDS011;37474;59.468;18.040;2024-01-30T07:23:12;40.77;;;14.47;;
50379;SDS011;37474;59.468;18.040;2024-01-30T07:25:43;39.57;;;13.87;;
50379;SDS011;37474;59.468;18.040;2024-01-30T07:28:16;36.37;;;12.80;;
50379;SDS011;37474;59.468;18.040;2024-01-30T07:30:46;27.97;;;10.80;;
50379;SDS011;37474;59.468;18.040;2024-01-30T07:33:15;23.10;;;9.70;;
50379;SDS011;37474;59.468;18.040;2024-01-30T07:35:44;24.97;;;10.80;;
50379;SDS011;37474;59.468;18.040;2024-01-30T07:38:13;30.33;;;10.00;;
50379;SDS011;37474;59.468;18.040;2024-01-30T07:40:41;42.33;;;9.90;;
50379;SDS011;37474;59.468;18.040;2024-01-30T07:43:09;33.40;;;8.87;;
50379;SDS011;37474;59.468;18.040;2024-01-30T07:45:37;21.50;;;8.70;;
50379;SDS011;37474;59.468;18.040;2024-01-30T07:48:07;43.30;;;9.80;;
50379;SDS011;37474;59.468;18.040;2024-01-30T07:50:35;25.05;;;9.02;;
50379;SDS011;37474;59.468;18.040;2024-01-30T07:53:03;17.73;;;8.70;;
50379;SDS011;37474;59.468;18.040;2024-01-30T07:55:35;26.23;;;9.60;;
50379;SDS011;37474;59.468;18.040;2024-01-30T07:58:07;32.27;;;9.13;;
50379;SDS011;37474;59.468;18.040;2024-01-30T08:00:36;18.57;;;8.87;;
50379;SDS011;37474;59.468;18.040;2024-01-30T08:03:04;24.97;;;8.70;;
50379;SDS011;37474;59.468;18.040;2024-01-30T08:05:34;23.23;;;8.53;;
50379;SDS011;37474;59.468;18.040;2024-01-30T08:08:02;33.38;;;8.88;;
50379;SDS011;37474;59.468;18.040;2024-01-30T08:10:30;23.83;;;8.47;;
50379;SDS011;37474;59.468;18.040;2024-01-30T08:12:58;29.00;;;8.73;;
50379;SDS011;37474;59.468;18.040;2024-01-30T08:15:29;34.70;;;9.43;;
50379;SDS011;37474;59.468;18.040;2024-01-30T08:17:56;56.80;;;10.10;;
50379;SDS011;37474;59.468;18.040;2024-01-30T08:20:25;42.67;;;9.33;;
50379;SDS011;37474;59.468;18.040;2024-01-30T08:22:55;22.73;;;8.20;;
50379;SDS011;37474;59.468;18.040;2024-01-30T08:25:23;21.92;;;7.90;;
50379;SDS011;37474;59.468;18.040;2024-01-30T08:27:51;26.87;;;8.23;;
50379;SDS011;37474;59.468;18.040;2024-01-30T08:30:20;24.10;;;8.57;;
50379;SDS011;37474;59.468;18.040;2024-01-30T08:32:48;28.03;;;9.43;;
50379;SDS011;37474;59.468;18.040;2024-01-30T08:35:16;23.37;;;8.50;;
50379;SDS011;37474;59.468;18.040;2024-01-30T08:37:44;24.03;;;8.10;;
50379;SDS011;37474;59.468;18.040;2024-01-30T08:40:14;32.93;;;7.83;;
50379;SDS011;37474;59.468;18.040;2024-01-30T08:42:42;19.45;;;7.78;;
50379;SDS011;37474;59.468;18.040;2024-01-30T08:45:10;20.70;;;7.40;;
50379;SDS011;37474;59.468;18.040;2024-01-30T08:47:38;21.90;;;7.47;;
50379;SDS011;37474;59.468;18.040;2024-01-30T08:50:06;21.17;;;7.57;;
50379;SDS011;37474;59.468;18.040;2024-01-30T08:52:35;18.17;;;7.85;;
50379;SDS011;37474;59.468;18.040;2024-01-30T08:55:03;18.17;;;7.17;;
50379;SDS011;37474;59.468;18.040;2024-01-30T08:57:33;22.73;;;8.10;;
50379;SDS011;37474;59.468;18.040;2024-01-30T09:00:01;18.27;;;7.87;;
50379;SDS011;37474;59.468;18.040;2024-01-30T09:02:33;21.37;;;7.70;;
50379;SDS011;37474;59.468;18.040;2024-01-30T09:05:01;24.30;;;8.17;;
50379;SDS011;37474;59.468;18.040;2024-01-30T09:07:30;26.67;;;8.67;;
50379;SDS011;37474;59.468;18.040;2024-01-30T09:09:58;26.77;;;8.63;;
50379;SDS011;37474;59.468;18.040;2024-01-30T09:12:26;20.83;;;8.27;;
50379;SDS011;37474;59.468;18.040;2024-01-30T09:14:55;25.93;;;9.30;;
50379;SDS011;37474;59.468;18.040;2024-01-30T09:17:23;19.73;;;8.23;;
50379;SDS011;37474;59.468;18.040;2024-01-30T09:19:51;19.60;;;8.37;;
50379;SDS011;37474;59.468;18.040;2024-01-30T09:22:20;38.00;;;8.70;;
50379;SDS011;37474;59.468;18.040;2024-01-30T09:24:48;25.73;;;8.70;;
50379;SDS011;37474;59.468;18.040;2024-01-30T09:27:19;19.00;;;8.73;;
50379;SDS011;37474;59.468;18.040;2024-01-30T09:29:47;29.80;;;8.43;;
50379;SDS011;37474;59.468;18.040;2024-01-30T09:32:16;31.93;;;10.67;;
50379;SDS011;37474;59.468;18.040;2024-01-30T09:34:45;22.63;;;8.70;;
50379;SDS011;37474;59.468;18.040;2024-01-30T09:37:13;17.90;;;9.03;;
50379;SDS011;37474;59.468;18.040;2024-01-30T09:39:44;20.47;;;8.73;;
50379;SDS011;37474;59.468;18.040;2024-01-30T09:42:16;21.40;;;9.57;;
50379;SDS011;37474;59.468;18.040;2024-01-30T09:44:49;22.47;;;9.10;;
50379;SDS011;37474;59.468;18.040;2024-01-30T09:47:20;21.38;;;9.52;;
50379;SDS011;37474;59.468;18.040;2024-01-30T09:49:48;29.10;;;9.90;;
50379;SDS011;37474;59.468;18.040;2024-01-30T09:52:17;22.60;;;9.67;;
50379;SDS011;37474;59.468;18.040;2024-01-30T09:54:46;19.23;;;9.43;;
50379;SDS011;37474;59.468;18.040;2024-01-30T09:57:16;24.63;;;10.60;;
50379;SDS011;37474;59.468;18.040;2024-01-30T09:59:45;24.70;;;10.07;;
50379;SDS011;37474;59.468;18.040;2024-01-30T10:02:13;21.13;;;9.23;;
50379;SDS011;37474;59.468;18.040;2024-01-30T10:04:43;20.90;;;9.23;;
50379;SDS011;37474;59.468;18.040;2024-01-30T10:07:11;25.70;;;9.32;;
50379;SDS011;37474;59.468;18.040;2024-01-30T10:09:40;20.90;;;8.87;;
50379;SDS011;37474;59.468;18.040;2024-01-30T10:12:08;23.50;;;9.60;;
50379;SDS011;37474;59.468;18.040;2024-01-30T10:14:37;22.77;;;8.77;;
50379;SDS011;37474;59.468;18.040;2024-01-30T10:17:07;23.60;;;10.68;;
50379;SDS011;37474;59.468;18.040;2024-01-30T10:19:48;28.40;;;9.40;;
50379;SDS011;37474;59.468;18.040;2024-01-30T10:22:18;48.47;;;11.23;;
50379;SDS011;37474;59.468;18.040;2024-01-30T10:24:48;46.83;;;11.90;;
50379;SDS011;37474;59.468;18.040;2024-01-30T10:27:16;46.93;;;10.93;;
50379;SDS011;37474;59.468;18.040;2024-01-30T10:29:48;38.23;;;10.73;;
50379;SDS011;37474;59.468;18.040;2024-01-30T10:32:16;32.03;;;10.27;;
50379;SDS011;37474;59.468;18.040;2024-01-30T10:34:45;22.47;;;9.30;;
50379;SDS011;37474;59.468;18.040;2024-01-30T10:37:15;22.03;;;9.53;;
50379;SDS011;37474;59.468;18.040;2024-01-30T10:39:44;23.58;;;9.93;;
50379;SDS011;37474;59.468;18.040;2024-01-30T10:42:17;25.93;;;9.80;;
50379;SDS011;37474;59.468;18.040;2024-01-30T10:44:48;23.67;;;9.73;;
50379;SDS011;37474;59.468;18.040;2024-01-30T10:47:25;19.97;;;9.33;;
50379;SDS011;37474;59.468;18.040;2024-01-30T10:49:55;27.47;;;10.53;;
50379;SDS011;37474;59.468;18.040;2024-01-30T10:52:25;18.63;;;9.17;;
50379;SDS011;37474;59.468;18.040;2024-01-30T10:54:56;25.30;;;9.03;;
50379;SDS011;37474;59.468;18.040;2024-01-30T10:57:24;22.27;;;10.13;;
50379;SDS011;37474;59.468;18.040;2024-01-30T10:59:53;16.87;;;8.67;;
50379;SDS011;37474;59.468;18.040;2024-01-30T11:02:24;23.20;;;10.23;;
50379;SDS011;37474;59.468;18.040;2024-01-30T11:04:55;26.47;;;9.70;;
50379;SDS011;37474;59.468;18.040;2024-01-30T11:07:27;21.40;;;9.83;;
50379;SDS011;37474;59.468;18.040;2024-01-30T11:09:59;21.27;;;10.27;;
50379;SDS011;37474;59.468;18.040;2024-01-30T11:12:29;21.93;;;9.80;;
50379;SDS011;37474;59.468;18.040;2024-01-30T11:17:45;22.83;;;11.17;;
50379;SDS011;37474;59.468;18.040;2024-01-30T11:20:20;21.33;;;9.53;;
50379;SDS011;37474;59.468;18.040;2024-01-30T11:22:51;19.38;;;10.07;;
50379;SDS011;37474;59.468;18.040;2024-01-30T11:25:20;24.23;;;10.60;;
50379;SDS011;37474;59.468;18.040;2024-01-30T11:27:51;20.27;;;10.60;;
50379;SDS011;37474;59.468;18.040;2024-01-30T11:30:23;21.48;;;10.82;;
50379;SDS011;37474;59.468;18.040;2024-01-30T11:32:59;19.37;;;10.27;;
50379;SDS011;37474;59.468;18.040;2024-01-30T11:35:33;21.63;;;9.43;;
50379;SDS011;37474;59.468;18.040;2024-01-30T11:38:03;22.38;;;10.63;;
50379;SDS011;37474;59.468;18.040;2024-01-30T11:40:32;23.90;;;10.68;;
50379;SDS011;37474;59.468;18.040;2024-01-30T11:43:02;21.30;;;10.27;;
50379;SDS011;37474;59.468;18.040;2024-01-30T11:45:31;22.50;;;10.27;;
50379;SDS011;37474;59.468;18.040;2024-01-30T11:48:00;21.00;;;10.67;;
50379;SDS011;37474;59.468;18.040;2024-01-30T11:52:59;22.07;;;10.27;;
50379;SDS011;37474;59.468;18.040;2024-01-30T11:55:30;21.93;;;10.90;;
50379;SDS011;37474;59.468;18.040;2024-01-30T11:58:01;23.27;;;11.20;;
50379;SDS011;37474;59.468;18.040;2024-01-30T12:00:29;25.27;;;11.23;;
50379;SDS011;37474;59.468;18.040;2024-01-30T12:05:28;22.83;;;10.80;;
50379;SDS011;37474;59.468;18.040;2024-01-30T12:07:57;22.50;;;10.73;;
50379;SDS011;37474;59.468;18.040;2024-01-30T12:10:28;21.57;;;9.90;;
50379;SDS011;37474;59.468;18.040;2024-01-30T12:12:57;32.42;;;14.88;;
50379;SDS011;37474;59.468;18.040;2024-01-30T12:15:26;44.93;;;19.80;;
50379;SDS011;37474;59.468;18.040;2024-01-30T12:18:03;29.50;;;13.00;;
50379;SDS011;37474;59.468;18.040;2024-01-30T12:20:31;24.90;;;11.93;;
50379;SDS011;37474;59.468;18.040;2024-01-30T12:23:00;25.70;;;12.40;;
50379;SDS011;37474;59.468;18.040;2024-01-30T12:25:29;24.00;;;10.77;;
50379;SDS011;37474;59.468;18.040;2024-01-30T12:30:27;28.30;;;13.60;;
50379;SDS011;37474;59.468;18.040;2024-01-30T12:32:56;27.67;;;12.35;;
50379;SDS011;37474;59.468;18.040;2024-01-30T12:35:24;25.03;;;12.27;;
50379;SDS011;37474;59.468;18.040;2024-01-30T12:37:57;27.60;;;12.50;;
50379;SDS011;37474;59.468;18.040;2024-01-30T12:40:25;29.67;;;13.33;;
50379;SDS011;37474;59.468;18.040;2024-01-30T12:42:55;29.83;;;13.90;;
50379;SDS011;37474;59.468;18.040;2024-01-30T12:45:24;27.00;;;12.43;;
50379;SDS011;37474;59.468;18.040;2024-01-30T12:47:53;27.57;;;12.83;;
50379;SDS011;37474;59.468;18.040;2024-01-30T12:50:21;29.77;;;12.87;;
50379;SDS011;37474;59.468;18.040;2024-01-30T12:52:51;27.88;;;12.45;;
50379;SDS011;37474;59.468;18.040;2024-01-30T12:55:19;26.63;;;12.10;;
50379;SDS011;37474;59.468;18.040;2024-01-30T12:57:48;28.80;;;13.37;;
50379;SDS011;37474;59.468;18.040;2024-01-30T13:00:17;29.33;;;13.57;;
50379;SDS011;37474;59.468;18.040;2024-01-30T13:02:45;32.83;;;13.88;;
50379;SDS011;37474;59.468;18.040;2024-01-30T13:05:15;28.23;;;13.60;;
50379;SDS011;37474;59.468;18.040;2024-01-30T13:07:43;32.17;;;13.83;;
50379;SDS011;37474;59.468;18.040;2024-01-30T13:10:12;26.40;;;12.50;;
50379;SDS011;37474;59.468;18.040;2024-01-30T13:12:40;28.20;;;13.00;;
50379;SDS011;37474;59.468;18.040;2024-01-30T13:15:08;27.47;;;13.40;;
50379;SDS011;37474;59.468;18.040;2024-01-30T13:17:39;27.37;;;13.10;;
50379;SDS011;37474;59.468;18.040;2024-01-30T13:20:09;32.50;;;15.47;;
50379;SDS011;37474;59.468;18.040;2024-01-30T13:22:38;32.70;;;15.20;;
50379;SDS011;37474;59.468;18.040;2024-01-30T13:25:06;33.53;;;15.13;;
50379;SDS011;37474;59.468;18.040;2024-01-30T13:27:35;35.67;;;15.47;;
50379;SDS011;37474;59.468;18.040;2024-01-30T13:30:06;39.65;;;16.58;;
50379;SDS011;37474;59.468;18.040;2024-01-30T13:32:38;35.63;;;15.70;;
50379;SDS011;37474;59.468;18.040;2024-01-30T13:35:08;40.57;;;16.80;;
50379;SDS011;37474;59.468;18.040;2024-01-30T13:37:36;42.30;;;16.87;;
50379;SDS011;37474;59.468;18.040;2024-01-30T13:40:05;37.97;;;16.37;;
50379;SDS011;37474;59.468;18.040;2024-01-30T13:42:39;37.30;;;16.30;;
50379;SDS011;37474;59.468;18.040;2024-01-30T13:45:07;40.33;;;16.93;;
50379;SDS011;37474;59.468;18.040;2024-01-30T13:47:38;41.25;;;17.08;;
50379;SDS011;37474;59.468;18.040;2024-01-30T13:50:07;41.83;;;17.63;;
50379;SDS011;37474;59.468;18.040;2024-01-30T13:52:38;38.07;;;15.77;;
50379;SDS011;37474;59.468;18.040;2024-01-30T13:55:11;39.70;;;17.20;;
50379;SDS011;37474;59.468;18.040;2024-01-30T13:57:40;44.53;;;18.00;;
50379;SDS011;37474;59.468;18.040;2024-01-30T14:00:08;44.67;;;17.73;;
50379;SDS011;37474;59.468;18.040;2024-01-30T14:02:39;45.50;;;17.92;;
50379;SDS011;37474;59.468;18.040;2024-01-30T14:05:07;36.92;;;16.58;;
50379;SDS011;37474;59.468;18.040;2024-01-30T14:07:36;46.80;;;18.87;;
50379;SDS011;37474;59.468;18.040;2024-01-30T14:10:06;44.28;;;18.75;;
50379;SDS011;37474;59.468;18.040;2024-01-30T14:12:39;43.00;;;18.43;;
50379;SDS011;37474;59.468;18.040;2024-01-30T14:15:07;45.23;;;18.20;;
50379;SDS011;37474;59.468;18.040;2024-01-30T14:17:55;51.33;;;18.70;;
50379;SDS011;37474;59.468;18.040;2024-01-30T14:20:25;41.10;;;17.63;;
50379;SDS011;37474;59.468;18.040;2024-01-30T14:22:53;43.57;;;18.77;;
50379;SDS011;37474;59.468;18.040;2024-01-30T14:25:23;47.95;;;18.50;;
50379;SDS011;37474;59.468;18.040;2024-01-30T14:27:51;41.13;;;18.17;;
50379;SDS011;37474;59.468;18.040;2024-01-30T14:30:19;48.53;;;19.00;;
50379;SDS011;37474;59.468;18.040;2024-01-30T14:32:48;51.57;;;18.97;;
50379;SDS011;37474;59.468;18.040;2024-01-30T14:35:17;45.60;;;18.73;;